sensor_id;sensor_type;location;lat;lon;timestamp;temperature;humidity
78490;DHT22;67776;52.012;4.736;2023-04-01T00:01:14;9.44;94.90
78490;DHT22;67776;52.012;4.736;2023-04-01T00:03:41;9.42;95.14
78490;DHT22;67776;52.012;4.736;2023-04-01T00:06:07;9.36;94.75
78490;DHT22;67776;52.012;4.736;2023-04-01T00:08:32;9.35;94.95
78490;DHT22;67776;52.012;4.736;2023-04-01T00:10:58;9.35;95.09
78490;DHT22;67776;52.012;4.736;2023-04-01T00:13:25;9.36;95.22
78490;DHT22;67776;52.012;4.736;2023-04-01T00:15:51;9.29;95.34
78490;DHT22;67776;52.012;4.736;2023-04-01T00:18:17;9.32;95.35
78490;DHT22;67776;52.012;4.736;2023-04-01T00:20:49;9.26;95.59
78490;DHT22;67776;52.012;4.736;2023-04-01T00:23:15;9.19;95.41
78490;DHT22;67776;52.012;4.736;2023-04-01T00:25:41;9.16;95.32
78490;DHT22;67776;52.012;4.736;2023-04-01T00:28:06;9.18;95.31
78490;DHT22;67776;52.012;4.736;2023-04-01T00:30:32;9.19;95.42
78490;DHT22;67776;52.012;4.736;2023-04-01T00:32:57;9.14;95.41
78490;DHT22;67776;52.012;4.736;2023-04-01T00:35:22;9.12;95.47
78490;DHT22;67776;52.012;4.736;2023-04-01T00:37:48;9.14;95.41
78490;DHT22;67776;52.012;4.736;2023-04-01T00:40:27;9.11;95.29
78490;DHT22;67776;52.012;4.736;2023-04-01T00:42:53;9.15;95.42
78490;DHT22;67776;52.012;4.736;2023-04-01T00:45:29;9.14;95.53
78490;DHT22;67776;52.012;4.736;2023-04-01T00:47:56;9.14;95.41
78490;DHT22;67776;52.012;4.736;2023-04-01T00:50:24;9.12;95.52
78490;DHT22;67776;52.012;4.736;2023-04-01T00:52:52;9.10;95.41
78490;DHT22;67776;52.012;4.736;2023-04-01T00:55:19;9.14;95.43
78490;DHT22;67776;52.012;4.736;2023-04-01T00:57:48;9.08;95.28
78490;DHT22;67776;52.012;4.736;2023-04-01T01:00:15;9.10;95.21
78490;DHT22;67776;52.012;4.736;2023-04-01T01:02:44;9.10;95.19
78490;DHT22;67776;52.012;4.736;2023-04-01T01:05:14;9.08;95.28
78490;DHT22;67776;52.012;4.736;2023-04-01T01:20:57;8.98;95.32
78490;DHT22;67776;52.012;4.736;2023-04-01T01:34:32;8.98;94.90
78490;DHT22;67776;52.012;4.736;2023-04-01T01:37:06;9.00;95.17
78490;DHT22;67776;52.012;4.736;2023-04-01T01:39:34;9.00;95.11
78490;DHT22;67776;52.012;4.736;2023-04-01T01:42:04;8.98;94.85
78490;DHT22;67776;52.012;4.736;2023-04-01T01:44:32;9.01;94.93
78490;DHT22;67776;52.012;4.736;2023-04-01T01:46:59;8.98;94.94
78490;DHT22;67776;52.012;4.736;2023-04-01T01:49:27;9.00;94.93
78490;DHT22;67776;52.012;4.736;2023-04-01T01:51:55;9.00;94.90
78490;DHT22;67776;52.012;4.736;2023-04-01T01:54:21;9.02;95.10
78490;DHT22;67776;52.012;4.736;2023-04-01T01:56:49;9.01;95.04
78490;DHT22;67776;52.012;4.736;2023-04-01T01:59:16;9.00;94.91
78490;DHT22;67776;52.012;4.736;2023-04-01T02:01:45;9.00;94.99
78490;DHT22;67776;52.012;4.736;2023-04-01T02:04:13;8.98;94.92
78490;DHT22;67776;52.012;4.736;2023-04-01T02:06:44;9.00;95.04
78490;DHT22;67776;52.012;4.736;2023-04-01T02:09:11;9.01;95.02
78490;DHT22;67776;52.012;4.736;2023-04-01T02:14:19;9.02;95.18
78490;DHT22;67776;52.012;4.736;2023-04-01T02:16:51;9.01;95.20
78490;DHT22;67776;52.012;4.736;2023-04-01T02:19:18;9.00;95.34
78490;DHT22;67776;52.012;4.736;2023-04-01T02:21:50;9.04;95.18
78490;DHT22;67776;52.012;4.736;2023-04-01T02:24:17;9.05;95.20
78490;DHT22;67776;52.012;4.736;2023-04-01T02:26:44;9.02;95.11
78490;DHT22;67776;52.012;4.736;2023-04-01T02:29:11;9.00;95.15
78490;DHT22;67776;52.012;4.736;2023-04-01T02:31:37;9.00;95.39
78490;DHT22;67776;52.012;4.736;2023-04-01T02:34:02;9.00;95.59
78490;DHT22;67776;52.012;4.736;2023-04-01T02:36:28;9.01;95.49
78490;DHT22;67776;52.012;4.736;2023-04-01T02:38:54;9.07;95.43
78490;DHT22;67776;52.012;4.736;2023-04-01T02:41:20;9.05;95.47
78490;DHT22;67776;52.012;4.736;2023-04-01T02:43:46;9.05;95.48
78490;DHT22;67776;52.012;4.736;2023-04-01T02:46:11;9.08;95.49
78490;DHT22;67776;52.012;4.736;2023-04-01T02:48:36;9.07;95.43
78490;DHT22;67776;52.012;4.736;2023-04-01T02:51:02;9.12;95.42
78490;DHT22;67776;52.012;4.736;2023-04-01T02:53:28;9.15;95.34
78490;DHT22;67776;52.012;4.736;2023-04-01T02:55:54;9.16;95.32
78490;DHT22;67776;52.012;4.736;2023-04-01T02:58:21;9.15;95.34
78490;DHT22;67776;52.012;4.736;2023-04-01T03:00:46;9.18;95.35
78490;DHT22;67776;52.012;4.736;2023-04-01T03:03:12;9.19;95.22
78490;DHT22;67776;52.012;4.736;2023-04-01T03:05:38;9.23;95.08
78490;DHT22;67776;52.012;4.736;2023-04-01T03:08:04;9.22;95.07
78490;DHT22;67776;52.012;4.736;2023-04-01T03:10:29;9.25;95.21
78490;DHT22;67776;52.012;4.736;2023-04-01T03:12:54;9.25;95.25
78490;DHT22;67776;52.012;4.736;2023-04-01T03:15:20;9.26;95.32
78490;DHT22;67776;52.012;4.736;2023-04-01T03:17:45;9.28;95.40
78490;DHT22;67776;52.012;4.736;2023-04-01T03:20:12;9.30;95.36
78490;DHT22;67776;52.012;4.736;2023-04-01T03:22:37;9.32;95.32
78490;DHT22;67776;52.012;4.736;2023-04-01T03:25:04;9.38;95.26
78490;DHT22;67776;52.012;4.736;2023-04-01T03:27:30;9.40;95.26
78490;DHT22;67776;52.012;4.736;2023-04-01T03:29:55;9.39;95.26
78490;DHT22;67776;52.012;4.736;2023-04-01T03:32:20;9.43;95.26
78490;DHT22;67776;52.012;4.736;2023-04-01T03:34:46;9.43;95.23
78490;DHT22;67776;52.012;4.736;2023-04-01T03:37:11;9.43;95.17
78490;DHT22;67776;52.012;4.736;2023-04-01T03:39:37;9.42;95.12
78490;DHT22;67776;52.012;4.736;2023-04-01T03:42:02;9.46;95.14
78490;DHT22;67776;52.012;4.736;2023-04-01T03:44:31;9.46;95.19
78490;DHT22;67776;52.012;4.736;2023-04-01T03:46:57;9.49;95.13
78490;DHT22;67776;52.012;4.736;2023-04-01T03:49:22;9.46;95.10
78490;DHT22;67776;52.012;4.736;2023-04-01T03:51:48;9.50;95.06
78490;DHT22;67776;52.012;4.736;2023-04-01T03:54:13;9.50;95.18
78490;DHT22;67776;52.012;4.736;2023-04-01T03:56:38;9.50;95.13
78490;DHT22;67776;52.012;4.736;2023-04-01T03:59:06;9.50;95.42
78490;DHT22;67776;52.012;4.736;2023-04-01T04:01:32;9.47;95.32
78490;DHT22;67776;52.012;4.736;2023-04-01T04:03:57;9.46;95.29
78490;DHT22;67776;52.012;4.736;2023-04-01T04:06:24;9.51;95.25
78490;DHT22;67776;52.012;4.736;2023-04-01T04:08:49;9.51;95.12
78490;DHT22;67776;52.012;4.736;2023-04-01T04:11:15;9.53;95.11
78490;DHT22;67776;52.012;4.736;2023-04-01T04:13:41;9.54;95.17
78490;DHT22;67776;52.012;4.736;2023-04-01T04:16:08;9.54;95.05
78490;DHT22;67776;52.012;4.736;2023-04-01T04:18:35;9.54;94.98
78490;DHT22;67776;52.012;4.736;2023-04-01T04:21:00;9.51;94.93
78490;DHT22;67776;52.012;4.736;2023-04-01T04:23:25;9.54;95.08
78490;DHT22;67776;52.012;4.736;2023-04-01T04:26:04;9.54;94.97
78490;DHT22;67776;52.012;4.736;2023-04-01T04:28:30;9.53;94.86
78490;DHT22;67776;52.012;4.736;2023-04-01T04:30:56;9.53;94.78
78490;DHT22;67776;52.012;4.736;2023-04-01T04:33:22;9.56;94.82
78490;DHT22;67776;52.012;4.736;2023-04-01T04:35:47;9.54;94.76
78490;DHT22;67776;52.012;4.736;2023-04-01T04:38:13;9.53;94.77
78490;DHT22;67776;52.012;4.736;2023-04-01T04:40:40;9.53;94.80
78490;DHT22;67776;52.012;4.736;2023-04-01T04:43:06;9.54;94.76
78490;DHT22;67776;52.012;4.736;2023-04-01T04:45:31;9.54;94.63
78490;DHT22;67776;52.012;4.736;2023-04-01T04:47:57;9.50;94.63
78490;DHT22;67776;52.012;4.736;2023-04-01T04:50:23;9.47;94.46
78490;DHT22;67776;52.012;4.736;2023-04-01T04:52:48;9.44;94.50
78490;DHT22;67776;52.012;4.736;2023-04-01T04:55:14;9.43;94.67
78490;DHT22;67776;52.012;4.736;2023-04-01T04:57:40;9.43;94.56
78490;DHT22;67776;52.012;4.736;2023-04-01T05:00:07;9.44;94.53
78490;DHT22;67776;52.012;4.736;2023-04-01T05:02:32;9.40;94.66
78490;DHT22;67776;52.012;4.736;2023-04-01T05:04:58;9.40;94.51
78490;DHT22;67776;52.012;4.736;2023-04-01T05:07:23;9.39;94.65
78490;DHT22;67776;52.012;4.736;2023-04-01T05:09:48;9.38;94.70
78490;DHT22;67776;52.012;4.736;2023-04-01T05:12:14;9.38;94.70
78490;DHT22;67776;52.012;4.736;2023-04-01T05:14:40;9.36;94.63
78490;DHT22;67776;52.012;4.736;2023-04-01T05:17:09;9.35;94.56
78490;DHT22;67776;52.012;4.736;2023-04-01T05:19:35;9.33;94.56
78490;DHT22;67776;52.012;4.736;2023-04-01T05:22:00;9.38;94.69
78490;DHT22;67776;52.012;4.736;2023-04-01T05:24:26;9.33;94.49
78490;DHT22;67776;52.012;4.736;2023-04-01T05:26:51;9.32;94.57
78490;DHT22;67776;52.012;4.736;2023-04-01T05:29:16;9.33;94.61
78490;DHT22;67776;52.012;4.736;2023-04-01T05:31:42;9.30;94.55
78490;DHT22;67776;52.012;4.736;2023-04-01T05:34:07;9.30;94.65
78490;DHT22;67776;52.012;4.736;2023-04-01T05:36:32;9.30;94.57
78490;DHT22;67776;52.012;4.736;2023-04-01T05:38:58;9.32;94.53
78490;DHT22;67776;52.012;4.736;2023-04-01T05:41:23;9.32;94.38
78490;DHT22;67776;52.012;4.736;2023-04-01T05:43:48;9.33;94.46
78490;DHT22;67776;52.012;4.736;2023-04-01T05:46:14;9.35;94.32
78490;DHT22;67776;52.012;4.736;2023-04-01T05:48:39;9.30;94.51
78490;DHT22;67776;52.012;4.736;2023-04-01T05:51:04;9.33;94.41
78490;DHT22;67776;52.012;4.736;2023-04-01T05:53:30;9.30;94.33
78490;DHT22;67776;52.012;4.736;2023-04-01T05:55:55;9.26;94.37
78490;DHT22;67776;52.012;4.736;2023-04-01T05:58:21;9.28;94.34
78490;DHT22;67776;52.012;4.736;2023-04-01T06:00:46;9.29;94.19
78490;DHT22;67776;52.012;4.736;2023-04-01T06:03:12;9.26;93.98
78490;DHT22;67776;52.012;4.736;2023-04-01T06:05:42;9.23;93.86
78490;DHT22;67776;52.012;4.736;2023-04-01T06:08:16;9.26;94.07
78490;DHT22;67776;52.012;4.736;2023-04-01T06:13:31;9.26;94.19
78490;DHT22;67776;52.012;4.736;2023-04-01T06:16:10;9.30;94.15
78490;DHT22;67776;52.012;4.736;2023-04-01T06:21:41;9.29;94.44
78490;DHT22;67776;52.012;4.736;2023-04-01T06:29:43;9.26;94.50
78490;DHT22;67776;52.012;4.736;2023-04-01T06:32:26;9.32;94.48
78490;DHT22;67776;52.012;4.736;2023-04-01T06:54:38;9.28;94.26
78490;DHT22;67776;52.012;4.736;2023-04-01T06:57:47;9.26;94.35
78490;DHT22;67776;52.012;4.736;2023-04-01T07:00:14;9.30;94.24
78490;DHT22;67776;52.012;4.736;2023-04-01T07:02:47;9.29;94.27
78490;DHT22;67776;52.012;4.736;2023-04-01T07:05:15;9.28;94.41
78490;DHT22;67776;52.012;4.736;2023-04-01T07:07:47;9.23;94.48
78490;DHT22;67776;52.012;4.736;2023-04-01T07:10:25;9.23;94.70
78490;DHT22;67776;52.012;4.736;2023-04-01T07:12:55;9.26;94.60
78490;DHT22;67776;52.012;4.736;2023-04-01T07:15:26;9.25;94.74
78490;DHT22;67776;52.012;4.736;2023-04-01T07:17:58;9.23;94.50
78490;DHT22;67776;52.012;4.736;2023-04-01T07:20:30;9.22;94.71
78490;DHT22;67776;52.012;4.736;2023-04-01T07:22:58;9.29;94.69
78490;DHT22;67776;52.012;4.736;2023-04-01T07:25:34;9.30;94.58
78490;DHT22;67776;52.012;4.736;2023-04-01T07:28:03;9.36;94.61
78490;DHT22;67776;52.012;4.736;2023-04-01T07:30:46;9.33;94.23
78490;DHT22;67776;52.012;4.736;2023-04-01T07:34:16;9.36;94.31
78490;DHT22;67776;52.012;4.736;2023-04-01T07:36:18;9.43;94.32
78490;DHT22;67776;52.012;4.736;2023-04-01T07:49:15;9.60;93.44
78490;DHT22;67776;52.012;4.736;2023-04-01T07:52:01;9.64;93.46
78490;DHT22;67776;52.012;4.736;2023-04-01T07:54:54;9.59;93.44
78490;DHT22;67776;52.012;4.736;2023-04-01T07:57:27;9.63;93.52
78490;DHT22;67776;52.012;4.736;2023-04-01T08:07:31;9.64;93.23
78490;DHT22;67776;52.012;4.736;2023-04-01T08:12:53;9.67;93.47
78490;DHT22;67776;52.012;4.736;2023-04-01T08:16:05;9.64;93.11
78490;DHT22;67776;52.012;4.736;2023-04-01T08:21:33;9.64;93.16
78490;DHT22;67776;52.012;4.736;2023-04-01T08:24:08;9.67;93.27
78490;DHT22;67776;52.012;4.736;2023-04-01T08:26:39;9.67;93.25
78490;DHT22;67776;52.012;4.736;2023-04-01T08:29:26;9.64;93.15
78490;DHT22;67776;52.012;4.736;2023-04-01T08:32:23;9.71;93.36
78490;DHT22;67776;52.012;4.736;2023-04-01T08:35:01;9.74;93.49
78490;DHT22;67776;52.012;4.736;2023-04-01T08:37:32;9.78;93.14
78490;DHT22;67776;52.012;4.736;2023-04-01T08:56:18;9.81;92.95
78490;DHT22;67776;52.012;4.736;2023-04-01T09:17:36;10.11;91.63
78490;DHT22;67776;52.012;4.736;2023-04-01T09:20:39;10.09;92.53
78490;DHT22;67776;52.012;4.736;2023-04-01T09:25:53;10.12;91.69
78490;DHT22;67776;52.012;4.736;2023-04-01T09:28:50;10.28;91.62
78490;DHT22;67776;52.012;4.736;2023-04-01T09:34:06;10.23;91.83
78490;DHT22;67776;52.012;4.736;2023-04-01T09:39:28;10.22;91.30
78490;DHT22;67776;52.012;4.736;2023-04-01T09:44:34;10.11;92.16
78490;DHT22;67776;52.012;4.736;2023-04-01T09:53:14;10.06;91.83
78490;DHT22;67776;52.012;4.736;2023-04-01T09:56:01;10.18;91.60
78490;DHT22;67776;52.012;4.736;2023-04-01T10:09:23;10.49;91.54
78490;DHT22;67776;52.012;4.736;2023-04-01T10:20:37;10.64;90.65
78490;DHT22;67776;52.012;4.736;2023-04-01T10:23:27;10.52;91.04
78490;DHT22;67776;52.012;4.736;2023-04-01T10:31:50;10.36;91.34
78490;DHT22;67776;52.012;4.736;2023-04-01T10:34:27;10.38;90.92
78490;DHT22;67776;52.012;4.736;2023-04-01T10:45:58;10.35;91.45
78490;DHT22;67776;52.012;4.736;2023-04-01T10:51:16;10.43;91.66
78490;DHT22;67776;52.012;4.736;2023-04-01T10:53:49;10.43;91.29
78490;DHT22;67776;52.012;4.736;2023-04-01T10:56:40;10.40;91.45
78490;DHT22;67776;52.012;4.736;2023-04-01T11:04:38;10.42;92.05
78490;DHT22;67776;52.012;4.736;2023-04-01T11:15:37;10.36;91.69
78490;DHT22;67776;52.012;4.736;2023-04-01T11:24:00;10.49;91.47
78490;DHT22;67776;52.012;4.736;2023-04-01T11:29:26;10.71;91.12
78490;DHT22;67776;52.012;4.736;2023-04-01T11:32:02;10.73;91.38
78490;DHT22;67776;52.012;4.736;2023-04-01T11:42:26;10.67;90.83
78490;DHT22;67776;52.012;4.736;2023-04-01T11:45:08;10.67;91.21
78490;DHT22;67776;52.012;4.736;2023-04-01T11:53:42;10.78;91.31
78490;DHT22;67776;52.012;4.736;2023-04-01T11:56:48;10.84;90.98
78490;DHT22;67776;52.012;4.736;2023-04-01T12:02:10;10.93;90.56
78490;DHT22;67776;52.012;4.736;2023-04-01T12:13:23;11.11;90.30
78490;DHT22;67776;52.012;4.736;2023-04-01T12:16:09;11.07;90.20
78490;DHT22;67776;52.012;4.736;2023-04-01T12:18:52;11.08;89.63
78490;DHT22;67776;52.012;4.736;2023-04-01T12:21:36;11.12;89.62
78490;DHT22;67776;52.012;4.736;2023-04-01T12:26:56;11.43;88.99
78490;DHT22;67776;52.012;4.736;2023-04-01T12:30:00;11.44;89.98
78490;DHT22;67776;52.012;4.736;2023-04-01T12:43:52;11.46;90.35
78490;DHT22;67776;52.012;4.736;2023-04-01T12:52:25;11.62;88.61
78490;DHT22;67776;52.012;4.736;2023-04-01T12:58:12;11.53;90.49
78490;DHT22;67776;52.012;4.736;2023-04-01T13:01:03;11.52;89.91
78490;DHT22;67776;52.012;4.736;2023-04-01T13:06:11;11.47;90.12
78490;DHT22;67776;52.012;4.736;2023-04-01T13:08:55;11.31;90.38
78490;DHT22;67776;52.012;4.736;2023-04-01T13:20:03;11.12;91.25
78490;DHT22;67776;52.012;4.736;2023-04-01T13:23:09;11.10;92.22
78490;DHT22;67776;52.012;4.736;2023-04-01T13:26:18;11.05;91.65
78490;DHT22;67776;52.012;4.736;2023-04-01T13:29:14;11.08;91.79
78490;DHT22;67776;52.012;4.736;2023-04-01T13:42:31;10.98;91.84
78490;DHT22;67776;52.012;4.736;2023-04-01T13:45:15;10.85;91.93
78490;DHT22;67776;52.012;4.736;2023-04-01T13:47:51;10.90;92.41
78490;DHT22;67776;52.012;4.736;2023-04-01T13:50:52;10.98;92.43
78490;DHT22;67776;52.012;4.736;2023-04-01T13:56:25;10.97;92.43
78490;DHT22;67776;52.012;4.736;2023-04-01T14:05:15;11.11;91.98
78490;DHT22;67776;52.012;4.736;2023-04-01T14:13:17;11.23;91.82
78490;DHT22;67776;52.012;4.736;2023-04-01T14:21:51;11.11;92.25
78490;DHT22;67776;52.012;4.736;2023-04-01T14:24:36;11.11;92.29
78490;DHT22;67776;52.012;4.736;2023-04-01T14:30:11;11.03;92.26
78490;DHT22;67776;52.012;4.736;2023-04-01T14:35:40;11.07;92.35
78490;DHT22;67776;52.012;4.736;2023-04-01T14:38:27;11.15;92.83
78490;DHT22;67776;52.012;4.736;2023-04-01T14:44:05;11.23;92.48
78490;DHT22;67776;52.012;4.736;2023-04-01T14:47:08;11.22;92.31
78490;DHT22;67776;52.012;4.736;2023-04-01T14:49:40;11.19;92.44
78490;DHT22;67776;52.012;4.736;2023-04-01T14:52:30;11.19;92.89
78490;DHT22;67776;52.012;4.736;2023-04-01T14:54:57;11.18;93.18
78490;DHT22;67776;52.012;4.736;2023-04-01T14:59:59;11.08;93.10
78490;DHT22;67776;52.012;4.736;2023-04-01T15:02:57;11.14;93.02
78490;DHT22;67776;52.012;4.736;2023-04-01T15:05:27;11.12;92.73
78490;DHT22;67776;52.012;4.736;2023-04-01T15:08:23;11.10;92.31
78490;DHT22;67776;52.012;4.736;2023-04-01T15:10:57;11.12;91.71
78490;DHT22;67776;52.012;4.736;2023-04-01T15:13:42;11.08;92.40
78490;DHT22;67776;52.012;4.736;2023-04-01T15:16:34;10.98;92.01
78490;DHT22;67776;52.012;4.736;2023-04-01T15:19:24;10.95;92.09
78490;DHT22;67776;52.012;4.736;2023-04-01T15:41:15;10.73;92.70
78490;DHT22;67776;52.012;4.736;2023-04-01T15:43:44;10.67;92.44
78490;DHT22;67776;52.012;4.736;2023-04-01T15:51:48;10.68;93.04
78490;DHT22;67776;52.012;4.736;2023-04-01T15:59:47;10.70;92.66
78490;DHT22;67776;52.012;4.736;2023-04-01T16:21:12;10.48;92.91
78490;DHT22;67776;52.012;4.736;2023-04-01T16:23:47;10.48;92.91
78490;DHT22;67776;52.012;4.736;2023-04-01T16:26:20;10.42;93.06
78490;DHT22;67776;52.012;4.736;2023-04-01T16:34:20;10.45;92.86
78490;DHT22;67776;52.012;4.736;2023-04-01T16:37:05;10.39;92.87
78490;DHT22;67776;52.012;4.736;2023-04-01T16:42:51;10.39;92.81
78490;DHT22;67776;52.012;4.736;2023-04-01T16:45:43;10.36;92.25
78490;DHT22;67776;52.012;4.736;2023-04-01T16:48:15;10.33;91.90
78490;DHT22;67776;52.012;4.736;2023-04-01T16:55:50;10.28;92.01
78490;DHT22;67776;52.012;4.736;2023-04-01T16:58:22;10.23;91.72
78490;DHT22;67776;52.012;4.736;2023-04-01T17:00:55;10.21;91.80
78490;DHT22;67776;52.012;4.736;2023-04-01T17:03:38;10.22;91.43
78490;DHT22;67776;52.012;4.736;2023-04-01T17:12:03;10.18;91.69
78490;DHT22;67776;52.012;4.736;2023-04-01T17:17:14;10.09;91.68
78490;DHT22;67776;52.012;4.736;2023-04-01T17:39:01;9.93;91.28
78490;DHT22;67776;52.012;4.736;2023-04-01T17:44:37;9.84;91.63
78490;DHT22;67776;52.012;4.736;2023-04-01T17:47:15;9.81;91.61
78490;DHT22;67776;52.012;4.736;2023-04-01T18:02:45;9.74;91.76
78490;DHT22;67776;52.012;4.736;2023-04-01T18:10:57;9.57;92.15
78490;DHT22;67776;52.012;4.736;2023-04-01T18:13:37;9.60;91.94
78490;DHT22;67776;52.012;4.736;2023-04-01T18:16:11;9.57;92.06
78490;DHT22;67776;52.012;4.736;2023-04-01T18:19:02;9.54;92.20
78490;DHT22;67776;52.012;4.736;2023-04-01T18:21:36;9.50;92.28
78490;DHT22;67776;52.012;4.736;2023-04-01T18:24:27;9.43;92.70
78490;DHT22;67776;52.012;4.736;2023-04-01T18:30:02;9.44;91.79
78490;DHT22;67776;52.012;4.736;2023-04-01T18:32:46;9.42;91.63
78490;DHT22;67776;52.012;4.736;2023-04-01T18:35:34;9.38;91.69
78490;DHT22;67776;52.012;4.736;2023-04-01T18:40:45;9.43;91.76
78490;DHT22;67776;52.012;4.736;2023-04-01T18:51:13;9.36;92.00
78490;DHT22;67776;52.012;4.736;2023-04-01T18:53:43;9.38;91.96
78490;DHT22;67776;52.012;4.736;2023-04-01T18:56:15;9.33;91.57
78490;DHT22;67776;52.012;4.736;2023-04-01T18:59:11;9.39;91.85
78490;DHT22;67776;52.012;4.736;2023-04-01T19:01:43;9.35;91.72
78490;DHT22;67776;52.012;4.736;2023-04-01T19:04:28;9.32;91.66
78490;DHT22;67776;52.012;4.736;2023-04-01T19:06:58;9.30;91.44
78490;DHT22;67776;52.012;4.736;2023-04-01T19:09:32;9.30;91.22
78490;DHT22;67776;52.012;4.736;2023-04-01T19:12:38;9.32;91.40
78490;DHT22;67776;52.012;4.736;2023-04-01T19:20:50;9.21;91.16
78490;DHT22;67776;52.012;4.736;2023-04-01T19:26:23;9.23;91.68
78490;DHT22;67776;52.012;4.736;2023-04-01T19:29:12;9.25;91.09
78490;DHT22;67776;52.012;4.736;2023-04-01T19:36:59;9.21;90.75
78490;DHT22;67776;52.012;4.736;2023-04-01T19:42:07;9.11;90.52
78490;DHT22;67776;52.012;4.736;2023-04-01T19:47:59;9.02;91.07
78490;DHT22;67776;52.012;4.736;2023-04-01T19:56:19;8.88;90.38
78490;DHT22;67776;52.012;4.736;2023-04-01T20:04:25;8.88;89.96
78490;DHT22;67776;52.012;4.736;2023-04-01T20:07:00;8.83;89.91
78490;DHT22;67776;52.012;4.736;2023-04-01T20:12:47;8.77;90.09
78490;DHT22;67776;52.012;4.736;2023-04-01T20:16:00;8.71;89.70
78490;DHT22;67776;52.012;4.736;2023-04-01T20:18:36;8.67;90.45
78490;DHT22;67776;52.012;4.736;2023-04-01T20:21:06;8.64;90.27
78490;DHT22;67776;52.012;4.736;2023-04-01T20:23:52;8.64;89.38
78490;DHT22;67776;52.012;4.736;2023-04-01T20:26:23;8.64;89.82
78490;DHT22;67776;52.012;4.736;2023-04-01T20:31:36;8.60;89.66
78490;DHT22;67776;52.012;4.736;2023-04-01T20:40:17;8.56;89.51
78490;DHT22;67776;52.012;4.736;2023-04-01T20:45:51;8.49;89.05
78490;DHT22;67776;52.012;4.736;2023-04-01T20:54:14;8.39;89.52
78490;DHT22;67776;52.012;4.736;2023-04-01T21:08:02;8.25;89.57
78490;DHT22;67776;52.012;4.736;2023-04-01T21:10:40;8.24;89.80
78490;DHT22;67776;52.012;4.736;2023-04-01T21:13:38;8.24;89.21
78490;DHT22;67776;52.012;4.736;2023-04-01T21:29:45;8.13;88.92
78490;DHT22;67776;52.012;4.736;2023-04-01T21:35:36;8.13;88.85
78490;DHT22;67776;52.012;4.736;2023-04-01T21:38:35;8.11;88.40
78490;DHT22;67776;52.012;4.736;2023-04-01T21:41:11;7.97;88.38
78490;DHT22;67776;52.012;4.736;2023-04-01T21:46:42;7.92;88.66
78490;DHT22;67776;52.012;4.736;2023-04-01T21:52:14;7.94;88.34
78490;DHT22;67776;52.012;4.736;2023-04-01T22:00:38;7.92;88.29
78490;DHT22;67776;52.012;4.736;2023-04-01T22:11:24;7.90;88.50
78490;DHT22;67776;52.012;4.736;2023-04-01T22:14:03;7.84;87.92
78490;DHT22;67776;52.012;4.736;2023-04-01T22:16:55;7.83;88.82
78490;DHT22;67776;52.012;4.736;2023-04-01T22:19:41;7.75;89.18
78490;DHT22;67776;52.012;4.736;2023-04-01T22:23:08;7.71;88.54
78490;DHT22;67776;52.012;4.736;2023-04-01T22:25:38;7.74;88.61
78490;DHT22;67776;52.012;4.736;2023-04-01T22:28:19;7.74;88.79
78490;DHT22;67776;52.012;4.736;2023-04-01T22:30:51;7.73;88.07
78490;DHT22;67776;52.012;4.736;2023-04-01T22:44:48;7.64;88.85
78490;DHT22;67776;52.012;4.736;2023-04-01T22:50:26;7.62;88.44
78490;DHT22;67776;52.012;4.736;2023-04-01T22:53:16;7.62;88.73
78490;DHT22;67776;52.012;4.736;2023-04-01T22:55:46;7.60;88.44
78490;DHT22;67776;52.012;4.736;2023-04-01T22:58:16;7.57;88.52
78490;DHT22;67776;52.012;4.736;2023-04-01T23:00:49;7.57;88.92
78490;DHT22;67776;52.012;4.736;2023-04-01T23:03:38;7.53;88.94
78490;DHT22;67776;52.012;4.736;2023-04-01T23:06:06;7.56;88.79
78490;DHT22;67776;52.012;4.736;2023-04-01T23:11:20;7.60;88.34
78490;DHT22;67776;52.012;4.736;2023-04-01T23:14:03;7.63;88.45
78490;DHT22;67776;52.012;4.736;2023-04-01T23:16:38;7.52;88.89
78490;DHT22;67776;52.012;4.736;2023-04-01T23:19:41;7.57;88.90
78490;DHT22;67776;52.012;4.736;2023-04-01T23:27:33;7.38;87.81
78490;DHT22;67776;52.012;4.736;2023-04-01T23:30:02;7.43;88.32
78490;DHT22;67776;52.012;4.736;2023-04-01T23:32:28;7.42;88.13
78490;DHT22;67776;52.012;4.736;2023-04-01T23:34:58;7.38;88.02
78490;DHT22;67776;52.012;4.736;2023-04-01T23:37:25;7.35;88.47
78490;DHT22;67776;52.012;4.736;2023-04-01T23:39:53;7.38;88.45
78490;DHT22;67776;52.012;4.736;2023-04-01T23:44:57;7.43;88.23
78490;DHT22;67776;52.012;4.736;2023-04-01T23:47:26;7.33;88.43
78490;DHT22;67776;52.012;4.736;2023-04-01T23:49:55;7.33;88.62
78490;DHT22;67776;52.012;4.736;2023-04-01T23:52:30;7.33;88.44
78490;DHT22;67776;52.012;4.736;2023-04-01T23:54:58;7.33;89.17
78490;DHT22;67776;52.012;4.736;2023-04-01T23:57:35;7.30;88.09
